Time;durP1;ratioP1;P1;durP2;ratioP2;P2;SDS_P1;SDS_P2;PMS_P1;PMS_P2;Temp;Humidity;BMP_temperature;BMP_pressure;BME280_temperature;BME280_humidity;BME280_pressure;Samples;Min_cycle;Max_cycle;Signal;HPM_P1;HPM_P2
2022/05/11 00:00:57;;;;;;;1.42;1.33;;;;;;;13.26;50.81;98609.72;6267954;22;20225;-57
2022/05/11 00:03:23;;;;;;;2.30;1.30;;;;;;;13.50;49.96;98608.69;6269742;22;20148;-57
2022/05/11 00:05:48;;;;;;;1.58;1.30;;;;;;;13.55;49.83;98616.13;6269997;22;20148;-57
2022/05/11 00:08:13;;;;;;;1.60;1.30;;;;;;;13.63;49.36;98605.94;6257254;22;20651;-57
2022/05/11 00:10:40;;;;;;;1.15;1.08;;;;;;;13.67;48.98;98610.81;6256917;22;20464;-57
2022/05/11 00:13:06;;;;;;;1.30;1.20;;;;;;;13.39;51.30;98600.03;6263525;22;20188;-57
2022/05/11 00:15:32;;;;;;;2.10;1.85;;;;;;;13.43;50.13;98599.72;6269290;22;20152;-57
2022/05/11 00:17:58;;;;;;;2.00;1.77;;;;;;;13.56;50.24;98600.41;6269426;22;20188;-57
2022/05/11 00:20:23;;;;;;;2.33;1.38;;;;;;;13.41;50.30;98598.97;6269499;22;20167;-57
2022/05/11 00:22:59;;;;;;;1.42;1.33;;;;;;;13.46;50.37;98596.03;6269179;22;20232;-57
2022/05/11 00:25:27;;;;;;;1.42;1.33;;;;;;;13.42;50.52;98595.44;6269558;22;20148;-57
2022/05/11 00:27:54;;;;;;;1.58;1.30;;;;;;;13.51;50.91;98580.91;6265808;22;20398;-57
2022/05/11 00:30:19;;;;;;;1.83;1.45;;;;;;;13.47;49.59;98589.91;6256016;22;20144;-57
2022/05/11 00:32:45;;;;;;;2.83;1.77;;;;;;;13.13;50.13;98590.81;6255945;22;20551;-57
2022/05/11 00:35:10;;;;;;;4.43;2.00;;;;;;;13.17;51.53;98589.63;6267578;22;20211;-57
2022/05/11 00:37:36;;;;;;;1.75;1.50;;;;;;;13.08;51.44;98585.94;6269077;22;20223;-57
2022/05/11 00:40:01;;;;;;;2.17;1.65;;;;;;;13.24;48.04;98581.25;6269252;22;20152;-57
2022/05/11 00:42:27;;;;;;;2.05;1.85;;;;;;;13.30;48.27;98582.56;6269144;22;20148;-57
2022/05/11 00:44:55;;;;;;;1.52;1.42;;;;;;;13.27;48.32;98585.38;6269379;22;20222;-57
2022/05/11 00:47:24;;;;;;;5.07;1.73;;;;;;;13.25;48.78;98582.09;6270036;22;20145;-57
2022/05/11 00:49:53;;;;;;;3.05;1.50;;;;;;;13.36;47.90;98584.69;6259775;22;20701;-57
2022/05/11 00:52:26;;;;;;;5.18;1.70;;;;;;;13.36;47.59;98579.50;6256898;22;20227;-57
2022/05/11 00:55:35;;;;;;;2.38;1.98;;;;;;;13.38;47.27;98582.81;6259686;22;20180;-57
2022/05/11 00:58:11;;;;;;;2.15;1.95;;;;;;;13.39;47.58;98590.50;6260926;22;20572;-57
2022/05/11 01:00:37;;;;;;;2.00;1.90;;;;;;;13.46;46.83;98590.81;6269121;22;20159;-57
2022/05/11 01:03:29;;;;;;;2.25;2.05;;;;;;;13.49;45.33;98586.25;6269276;22;20152;-57
2022/05/11 01:05:54;;;;;;;3.15;2.10;;;;;;;13.52;47.02;98591.19;6269411;22;20201;-57
2022/05/11 01:08:21;;;;;;;2.20;2.00;;;;;;;13.44;47.72;98584.94;6269388;22;20152;-57
2022/05/11 01:10:48;;;;;;;2.55;1.77;;;;;;;13.23;48.60;98583.97;6259993;22;20233;-57
2022/05/11 01:13:17;;;;;;;2.13;2.00;;;;;;;13.29;48.04;98588.72;6256196;22;20259;-57
2022/05/11 01:15:47;;;;;;;2.22;2.03;;;;;;;13.18;47.97;98579.13;6260085;22;20183;-57
2022/05/11 01:18:13;;;;;;;1.85;1.75;;;;;;;13.13;48.23;98580.44;6269370;22;20136;-57
2022/05/11 01:20:38;;;;;;;2.42;2.22;;;;;;;13.08;47.80;98585.16;6269167;22;20564;-57
2022/05/11 01:23:51;;;;;;;1.83;1.73;;;;;;;12.90;48.67;98584.72;6268882;22;20156;-57
2022/05/11 01:26:18;;;;;;;2.22;1.95;;;;;;;12.94;48.62;98585.31;6255560;22;20213;-57
2022/05/11 01:28:46;;;;;;;2.15;1.90;;;;;;;12.93;48.64;98575.88;6269139;22;20655;-57
2022/05/11 01:31:15;;;;;;;2.13;2.00;;;;;;;12.95;48.45;98580.03;6264157;22;20156;-57
2022/05/11 01:33:44;;;;;;;2.63;2.00;;;;;;;13.02;48.45;98583.81;6255653;22;20184;-57
2022/05/11 01:36:23;;;;;;;2.08;1.98;;;;;;;12.95;47.82;98584.38;6259953;22;20420;-57
2022/05/11 01:38:51;;;;;;;3.20;2.00;;;;;;;12.95;48.62;98589.59;6271138;22;20145;-57
2022/05/11 01:41:33;;;;;;;2.83;2.20;;;;;;;12.83;48.67;98588.72;6271076;22;20168;-57
2022/05/11 01:44:00;;;;;;;2.35;2.17;;;;;;;12.82;48.90;98581.03;6271216;22;20155;-57
2022/05/11 01:46:27;;;;;;;3.30;2.20;;;;;;;12.99;48.17;98591.03;6271112;22;20205;-57
2022/05/11 01:48:53;;;;;;;4.20;2.60;;;;;;;13.05;48.04;98586.19;6271333;22;20180;-57
2022/05/11 01:51:19;;;;;;;2.40;2.20;;;;;;;13.12;48.91;98586.56;6270761;22;20997;-58
2022/05/11 01:53:47;;;;;;;2.55;2.38;;;;;;;13.07;50.17;98588.69;6256988;22;20256;-57
2022/05/11 01:56:20;;;;;;;2.90;2.50;;;;;;;13.20;49.72;98587.66;6258841;22;20631;-57
2022/05/11 01:58:46;;;;;;;2.83;2.63;;;;;;;13.27;48.15;98590.59;6264821;22;20551;-57
2022/05/11 02:01:15;;;;;;;4.15;2.90;;;;;;;13.25;48.81;98598.50;6271056;22;20148;-57
2022/05/11 02:03:41;;;;;;;9.32;3.58;;;;;;;13.32;47.81;98596.25;6269096;22;20168;-57
2022/05/11 02:08:50;;;;;;;2.85;2.60;;;;;;;13.07;47.90;98581.72;6270961;22;20147;-57
2022/05/11 02:11:15;;;;;;;2.90;2.70;;;;;;;13.03;47.85;98577.72;6270909;22;20148;-57
2022/05/11 02:13:41;;;;;;;2.45;2.17;;;;;;;12.91;49.02;98577.75;6261706;22;20244;-57
2022/05/11 02:16:07;;;;;;;2.60;2.40;;;;;;;12.88;48.99;98583.16;6257658;22;20206;-57
2022/05/11 02:18:33;;;;;;;4.50;2.83;;;;;;;12.76;48.86;98581.50;6260508;22;20228;-57
2022/05/11 02:20:58;;;;;;;3.25;2.88;;;;;;;12.76;49.93;98589.28;6270694;22;20555;-57
2022/05/11 02:23:24;;;;;;;4.45;3.20;;;;;;;12.71;50.69;98592.22;6270682;22;20172;-57
2022/05/11 02:25:51;;;;;;;3.47;3.17;;;;;;;12.84;50.88;98605.13;6270873;22;20148;-57
2022/05/11 02:28:19;;;;;;;3.72;3.40;;;;;;;12.55;52.75;98602.06;6270719;22;20181;-57
2022/05/11 02:30:45;;;;;;;5.35;3.30;;;;;;;12.56;52.70;98597.72;6271017;22;20162;-57
2022/05/11 02:33:12;;;;;;;3.70;2.22;;;;;;;12.81;50.67;98597.56;6269075;22;20173;-57
2022/05/11 02:35:38;;;;;;;4.18;2.40;;;;;;;12.77;52.74;98614.34;6257748;22;20152;-57
2022/05/11 02:38:07;;;;;;;6.07;2.63;;;;;;;12.86;51.91;98611.88;6258162;22;20144;-57
2022/05/11 02:40:36;;;;;;;4.47;2.50;;;;;;;12.44;54.23;98609.00;6265094;22;20151;-57
2022/05/11 02:43:02;;;;;;;3.60;2.10;;;;;;;12.19;56.50;98609.13;6270766;22;20645;-55
2022/05/11 02:45:29;;;;;;;2.17;2.08;;;;;;;12.06;56.60;98613.50;6270487;22;20160;-55
2022/05/11 02:47:55;;;;;;;2.67;1.92;;;;;;;12.25;55.68;98619.06;6270426;22;20148;-55
2022/05/11 02:50:48;;;;;;;2.78;2.13;;;;;;;12.25;56.68;98613.88;6270768;22;20148;-55
2022/05/11 02:53:14;;;;;;;3.95;2.60;;;;;;;12.06;58.73;98613.50;6270450;22;20172;-55
2022/05/11 02:55:47;;;;;;;3.78;2.50;;;;;;;12.13;58.40;98606.97;6263209;22;20657;-55
2022/05/11 02:58:17;;;;;;;4.90;2.38;;;;;;;12.38;57.32;98609.47;6257075;22;20190;-55
2022/05/11 03:00:46;;;;;;;5.90;2.50;;;;;;;12.36;58.21;98604.38;6261204;22;20476;-55
2022/05/11 03:03:13;;;;;;;2.92;2.67;;;;;;;12.28;56.56;98601.50;6270716;22;20462;-55
2022/05/11 03:05:40;;;;;;;3.63;3.33;;;;;;;12.27;54.89;98596.44;6270522;22;20210;-55
2022/05/11 03:08:06;;;;;;;3.17;2.88;;;;;;;12.19;57.51;98604.75;6270329;22;20180;-58
2022/05/11 03:10:32;;;;;;;3.20;2.90;;;;;;;12.11;58.24;98599.31;6270324;22;20151;-58
2022/05/11 03:12:58;;;;;;;3.42;2.97;;;;;;;11.91;59.93;98599.06;6270656;22;20650;-55
2022/05/11 03:15:23;;;;;;;3.67;3.33;;;;;;;11.89;60.46;98593.13;6270266;22;20152;-55
2022/05/11 03:17:49;;;;;;;3.40;2.88;;;;;;;11.90;60.79;98587.03;6256301;22;20269;-55
2022/05/11 03:20:15;;;;;;;4.05;3.65;;;;;;;12.14;56.40;98587.88;6257916;22;20153;-55
2022/05/11 03:22:41;;;;;;;5.63;3.97;;;;;;;12.17;56.21;98585.88;6263391;22;20222;-55
2022/05/11 03:25:10;;;;;;;3.58;3.28;;;;;;;12.24;54.09;98581.06;6270218;22;20243;-55
2022/05/11 03:27:35;;;;;;;5.32;3.45;;;;;;;12.06;54.15;98579.81;6270097;22;20652;-55
2022/05/11 03:30:01;;;;;;;4.70;3.60;;;;;;;12.10;54.99;98586.44;6270012;22;20148;-55
2022/05/11 03:35:10;;;;;;;3.03;2.80;;;;;;;12.29;54.74;98578.97;6269941;22;20225;-55
2022/05/11 03:37:37;;;;;;;3.97;3.22;;;;;;;12.29;55.92;98594.53;6263401;22;20176;-55
2022/05/11 03:40:05;;;;;;;4.43;3.30;;;;;;;12.33;55.37;98590.78;6256770;22;20226;-55
2022/05/11 03:42:32;;;;;;;4.60;3.63;;;;;;;12.41;54.69;98591.06;6258880;22;20159;-56
2022/05/11 03:45:12;;;;;;;5.47;4.18;;;;;;;12.56;54.78;98595.13;6269468;22;20206;-56
2022/05/11 03:47:38;;;;;;;8.38;4.70;;;;;;;12.63;55.26;98598.94;6270056;22;20136;-56
2022/05/11 03:50:04;;;;;;;7.28;3.20;;;;;;;12.75;59.61;98603.22;6269977;22;20148;-55
2022/05/11 03:52:29;;;;;;;6.55;4.72;;;;;;;12.89;55.35;98608.22;6269917;22;20554;-56
2022/05/11 03:54:55;;;;;;;5.22;4.15;;;;;;;13.04;55.01;98609.69;6269846;22;20172;-56
2022/05/11 03:57:21;;;;;;;6.05;4.70;;;;;;;13.10;54.37;98611.81;6269747;22;20589;-55
2022/05/11 03:59:46;;;;;;;6.15;4.72;;;;;;;13.13;54.74;98611.59;6256518;22;20440;-55
2022/05/11 04:02:12;;;;;;;5.85;4.55;;;;;;;13.18;52.76;98606.91;6257450;22;20548;-55
2022/05/11 04:04:37;;;;;;;5.57;4.65;;;;;;;13.31;52.57;98615.41;6264504;22;20171;-56
2022/05/11 04:07:03;;;;;;;5.32;4.22;;;;;;;13.36;52.14;98621.91;6269794;22;20270;-56
2022/05/11 04:09:28;;;;;;;10.68;4.68;;;;;;;13.52;51.87;98624.16;6269780;22;20152;-55
2022/05/11 04:11:54;;;;;;;6.15;5.03;;;;;;;13.55;52.45;98621.31;6269497;22;20222;-56
2022/05/11 04:14:19;;;;;;;4.88;4.38;;;;;;;13.66;52.37;98618.72;6267215;22;20536;-55
2022/05/11 04:16:45;;;;;;;4.63;4.03;;;;;;;13.78;53.04;98617.75;6267345;22;20707;-56
2022/05/11 04:19:10;;;;;;;6.63;5.03;;;;;;;13.92;50.60;98614.91;6265742;22;20154;-55
2022/05/11 04:21:36;;;;;;;5.82;4.65;;;;;;;13.97;50.10;98630.97;6253929;22;20160;-55
2022/05/11 04:24:01;;;;;;;5.97;5.15;;;;;;;14.03;49.54;98622.69;6258041;22;20152;-56
2022/05/11 04:26:30;;;;;;;5.50;4.43;;;;;;;14.10;49.33;98622.09;6267914;22;20644;-56
2022/05/11 04:28:56;;;;;;;8.00;5.10;;;;;;;14.31;49.58;98632.59;6269331;22;20153;-57
2022/05/11 04:31:21;;;;;;;6.72;3.45;;;;;;;14.36;51.32;98620.84;6269985;22;20152;-56
2022/05/11 04:33:47;;;;;;;3.85;3.40;;;;;;;14.55;52.73;98625.41;6269728;22;20183;-56
2022/05/11 04:36:13;;;;;;;5.28;2.95;;;;;;;14.71;53.77;98626.66;6269417;22;20590;-58
2022/05/11 04:38:38;;;;;;;3.40;3.00;;;;;;;14.74;54.17;98629.00;6269360;22;20153;-58
2022/05/11 04:41:04;;;;;;;4.80;2.88;;;;;;;14.69;54.06;98627.75;6258599;22;20152;-58
2022/05/11 04:43:29;;;;;;;4.07;2.83;;;;;;;14.81;53.67;98637.16;6256877;22;20144;-55
2022/05/11 04:45:56;;;;;;;4.43;3.80;;;;;;;14.92;50.50;98627.50;6260764;22;20210;-56
2022/05/11 04:48:21;;;;;;;5.43;4.50;;;;;;;14.89;48.54;98626.91;6269621;22;20261;-56
2022/05/11 04:50:47;;;;;;;5.55;4.70;;;;;;;14.78;48.60;98630.41;6269013;22;20533;-58
2022/05/11 04:53:14;;;;;;;8.35;3.80;;;;;;;14.74;48.69;98630.78;6269325;22;20202;-58
2022/05/11 04:55:40;;;;;;;4.35;3.60;;;;;;;14.68;49.35;98639.09;6269399;22;20198;-55
2022/05/11 04:58:06;;;;;;;7.15;4.00;;;;;;;14.90;51.45;98646.81;6269270;22;20148;-57
2022/05/11 05:00:33;;;;;;;7.80;3.55;;;;;;;15.13;52.43;98648.34;6269291;22;20152;-57
2022/05/11 05:03:01;;;;;;;9.20;3.35;;;;;;;15.30;52.46;98652.97;6255335;22;20152;-58
2022/05/11 05:05:26;;;;;;;9.52;3.40;;;;;;;15.51;52.43;98659.03;6257342;22;20180;-56
2022/05/11 05:07:52;;;;;;;6.72;3.53;;;;;;;15.66;51.54;98663.78;6264106;22;20187;-56
2022/05/11 05:10:19;;;;;;;4.03;3.45;;;;;;;15.77;51.02;98665.47;6271348;22;20168;-57
2022/05/11 05:12:44;;;;;;;4.40;3.50;;;;;;;15.88;49.09;98668.00;6272666;22;20151;-56
2022/05/11 05:15:12;;;;;;;7.55;3.38;;;;;;;15.89;49.30;98674.84;6270582;22;20261;-56
2022/05/11 05:17:38;;;;;;;4.13;3.00;;;;;;;16.05;49.48;98677.81;6270703;22;20196;-55
2022/05/11 05:20:07;;;;;;;6.85;3.65;;;;;;;16.22;49.32;98677.97;6273306;22;20156;-56
2022/05/11 05:22:33;;;;;;;6.90;4.10;;;;;;;16.41;48.98;98677.25;6268349;22;20162;-56
2022/05/11 05:24:58;;;;;;;9.10;4.45;;;;;;;16.56;49.15;98681.13;6259082;22;20520;-57
2022/05/11 05:27:24;;;;;;;13.82;4.75;;;;;;;16.66;49.08;98679.34;6261244;22;20158;-56
2022/05/11 05:32:40;;;;;;;4.60;2.92;;;;;;;16.72;45.03;98684.00;6272468;22;20194;-56
2022/05/11 05:35:07;;;;;;;2.90;2.60;;;;;;;16.55;44.53;98685.50;6272562;22;20180;-56
2022/05/11 05:37:32;;;;;;;3.13;2.83;;;;;;;16.43;45.21;98690.97;6272957;22;20202;-56
2022/05/11 05:39:58;;;;;;;3.72;3.03;;;;;;;16.43;45.28;98685.75;6270875;22;20156;-55
2022/05/11 05:42:26;;;;;;;3.33;3.08;;;;;;;16.47;45.44;98681.94;6272547;22;20180;-55
2022/05/11 05:44:52;;;;;;;3.83;3.40;;;;;;;16.59;44.87;98683.44;6260248;22;20355;-56
2022/05/11 05:47:17;;;;;;;3.83;3.08;;;;;;;16.63;44.12;98682.22;6258153;22;20156;-56
2022/05/11 05:49:44;;;;;;;2.75;2.55;;;;;;;16.58;44.54;98679.19;6266424;22;20155;-56
2022/05/11 05:52:18;;;;;;;4.55;3.08;;;;;;;16.62;44.22;98675.34;6272542;22;20155;-56
2022/05/11 05:54:45;;;;;;;3.33;2.70;;;;;;;16.36;44.86;98680.22;6272435;22;20210;-56
2022/05/11 05:57:11;;;;;;;3.80;3.05;;;;;;;16.59;44.94;98678.22;6270837;22;20159;-56
2022/05/11 05:59:37;;;;;;;2.90;2.70;;;;;;;16.59;44.63;98676.47;6272606;22;20159;-56
2022/05/11 06:02:03;;;;;;;4.03;2.83;;;;;;;16.79;44.50;98687.75;6272538;22;20152;-56
2022/05/11 06:04:28;;;;;;;3.65;3.10;;;;;;;16.86;44.20;98678.41;6268742;22;20156;-56
2022/05/11 06:06:54;;;;;;;2.97;2.78;;;;;;;16.84;43.69;98685.56;6258575;22;20243;-56
2022/05/11 06:09:19;;;;;;;3.20;2.95;;;;;;;16.98;43.89;98687.75;6260923;22;20444;-56
2022/05/11 06:11:45;;;;;;;4.25;2.95;;;;;;;16.95;43.52;98677.56;6270272;22;20238;-56
2022/05/11 06:14:11;;;;;;;6.88;3.42;;;;;;;17.20;43.73;98684.84;6272232;22;20182;-56
2022/05/11 06:16:36;;;;;;;3.75;3.13;;;;;;;17.30;43.12;98696.09;6272089;22;20200;-56
2022/05/11 06:19:02;;;;;;;3.58;2.92;;;;;;;17.40;43.15;98689.94;6272395;22;20644;-56
2022/05/11 06:21:28;;;;;;;3.17;2.88;;;;;;;17.61;42.69;98698.41;6270488;22;20602;-56
2022/05/11 06:23:54;;;;;;;3.08;2.70;;;;;;;17.82;41.83;98706.06;6270593;22;20158;-56
2022/05/11 06:26:20;;;;;;;3.10;2.80;;;;;;;18.07;41.17;98700.22;6262120;22;20152;-56
2022/05/11 06:28:46;;;;;;;4.35;2.63;;;;;;;18.31;40.56;98708.34;6257734;22;20234;-56
2022/05/11 06:31:13;;;;;;;4.63;3.28;;;;;;;18.54;40.05;98701.78;6261294;22;20156;-56
2022/05/11 06:33:38;;;;;;;4.53;3.20;;;;;;;18.77;39.87;98700.38;6270688;22;20660;-56
2022/05/11 06:36:06;;;;;;;7.70;3.05;;;;;;;18.97;40.02;98702.72;6270659;22;20144;-56
2022/05/11 06:38:32;;;;;;;6.13;3.00;;;;;;;19.12;40.56;98705.63;6270897;22;20160;-56
2022/05/11 06:40:57;;;;;;;4.15;2.58;;;;;;;19.28;41.46;98708.41;6270171;22;20174;-56
2022/05/11 06:43:23;;;;;;;7.40;3.35;;;;;;;19.40;41.33;98707.19;6270436;22;20147;-56
2022/05/11 06:45:49;;;;;;;5.45;2.58;;;;;;;19.53;41.03;98699.75;6270773;22;20155;-56
2022/05/11 06:48:15;;;;;;;5.47;2.58;;;;;;;19.66;40.71;98705.41;6255563;22;20183;-57
2022/05/11 06:50:42;;;;;;;4.90;2.60;;;;;;;19.77;40.49;98707.78;6257820;22;20183;-57
2022/05/11 06:53:13;;;;;;;6.70;2.22;;;;;;;19.88;40.88;98702.25;6265085;22;20230;-56
2022/05/11 06:59:20;;;;;;;3.35;2.33;;;;;;;19.93;40.82;98702.63;6270403;22;20601;-57
2022/05/11 07:01:15;;;;;;;3.30;3.00;;;;;;;20.06;40.95;98701.22;6270394;22;20167;-57
2022/05/11 07:03:41;;;;;;;6.97;2.83;;;;;;;20.17;41.21;98700.13;6270181;22;20148;-56
2022/05/11 07:06:08;;;;;;;5.65;2.85;;;;;;;20.28;40.61;98702.50;6268630;22;20239;-57
2022/05/11 07:08:35;;;;;;;4.80;2.75;;;;;;;20.38;41.14;98704.00;6261341;22;20154;-57
2022/05/11 07:13:45;;;;;;;4.53;2.58;;;;;;;20.37;41.81;98698.88;6262811;22;20714;-56
2022/05/11 07:16:11;;;;;;;8.32;2.95;;;;;;;20.46;42.57;98695.31;6270246;22;20171;-57
2022/05/11 07:18:36;;;;;;;4.63;2.47;;;;;;;20.51;43.25;98704.38;6270239;22;20144;-57
2022/05/11 07:21:03;;;;;;;4.32;2.30;;;;;;;20.52;43.29;98707.81;6270315;22;20156;-56
2022/05/11 07:23:30;;;;;;;4.97;2.70;;;;;;;20.58;43.72;98701.94;6269857;22;20504;-57
2022/05/11 07:25:56;;;;;;;3.15;2.85;;;;;;;20.66;43.77;98699.31;6270122;22;20169;-57
2022/05/11 07:28:22;;;;;;;3.58;2.50;;;;;;;20.71;43.89;98707.53;6267010;22;20156;-56
2022/05/11 07:30:47;;;;;;;5.97;2.33;;;;;;;20.73;42.38;98703.75;6255758;22;20608;-56
2022/05/11 07:33:15;;;;;;;3.92;2.50;;;;;;;20.75;41.15;98707.03;6256043;22;20159;-56
2022/05/11 07:35:42;;;;;;;5.32;2.55;;;;;;;20.80;41.11;98703.94;6266395;22;20248;-56
2022/05/11 07:38:10;;;;;;;4.25;2.25;;;;;;;20.85;41.29;98693.75;6269255;22;20589;-56
2022/05/11 07:40:35;;;;;;;8.65;2.25;;;;;;;20.89;40.58;98703.00;6270109;22;20172;-56
2022/05/11 07:43:01;;;;;;;7.60;2.53;;;;;;;20.88;41.08;98696.06;6269819;22;20594;-56
2022/05/11 07:45:27;;;;;;;8.30;2.28;;;;;;;20.79;41.81;98705.75;6269985;22;20507;-57
2022/05/11 07:47:52;;;;;;;6.30;2.40;;;;;;;20.76;41.93;98703.44;6267892;22;20156;-56
2022/05/11 07:50:18;;;;;;;4.60;2.33;;;;;;;20.67;42.09;98706.19;6262679;22;20260;-56
2022/05/11 07:52:46;;;;;;;3.22;2.53;;;;;;;20.62;42.39;98696.19;6254771;22;20440;-56
2022/05/11 07:55:13;;;;;;;4.38;2.50;;;;;;;20.58;42.50;98700.09;6259530;22;20168;-57
2022/05/11 08:00:22;;;;;;;8.00;2.42;;;;;;;20.36;44.02;98687.56;6269775;22;20148;-56
2022/05/11 08:02:48;;;;;;;4.68;2.53;;;;;;;20.36;44.54;98684.09;6269719;22;20152;-57
2022/05/11 08:05:15;;;;;;;10.93;2.83;;;;;;;20.46;44.82;98684.81;6269770;22;20151;-57
2022/05/11 08:07:44;;;;;;;6.45;2.60;;;;;;;20.52;44.85;98684.16;6269521;22;20601;-57
2022/05/11 08:10:13;;;;;;;3.50;2.60;;;;;;;20.48;45.04;98682.81;6269662;22;20144;-57
2022/05/11 08:12:39;;;;;;;8.23;2.58;;;;;;;20.46;45.73;98679.53;6255182;22;20148;-56
2022/05/11 08:15:06;;;;;;;4.80;2.40;;;;;;;20.51;46.26;98678.06;6257392;22;20183;-57
2022/05/11 08:17:34;;;;;;;6.55;2.72;;;;;;;20.59;46.08;98678.09;6265657;22;20191;-57
2022/05/11 08:20:00;;;;;;;7.10;3.30;;;;;;;20.69;45.91;98675.34;6269389;22;20219;-56
2022/05/11 08:22:27;;;;;;;5.25;2.58;;;;;;;20.77;45.38;98667.44;6269850;22;20507;-57
2022/05/11 08:24:54;;;;;;;7.00;2.92;;;;;;;20.75;45.92;98677.31;6269437;22;20230;-57
2022/05/11 08:27:23;;;;;;;6.60;2.72;;;;;;;20.47;46.26;98668.03;6269511;22;20201;-57
2022/05/11 08:35:16;;;;;;;4.30;2.83;;;;;;;20.90;45.52;98673.06;6256487;22;20214;-57
2022/05/11 08:37:42;;;;;;;7.75;2.42;;;;;;;21.06;44.21;98662.56;6259608;22;20160;-57
2022/05/11 08:40:17;;;;;;;5.35;2.65;;;;;;;21.20;41.72;98669.78;6269290;22;20151;-56
2022/05/11 08:42:42;;;;;;;6.00;3.05;;;;;;;21.29;41.55;98679.34;6269262;22;20143;-57
2022/05/11 08:45:09;;;;;;;11.43;2.75;;;;;;;21.43;40.54;98673.38;6268942;22;20144;-57
2022/05/11 08:47:45;;;;;;;6.07;2.45;;;;;;;21.58;39.72;98674.38;6269441;22;20155;-57
2022/05/11 08:50:16;;;;;;;2.83;2.50;;;;;;;21.66;39.02;98674.34;6267710;22;20166;-57
2022/05/11 08:53:05;;;;;;;4.57;2.50;;;;;;;21.72;38.98;98673.69;6267046;22;20140;-57
2022/05/11 08:55:47;;;;;;;7.13;2.88;;;;;;;21.79;38.71;98677.34;6256192;22;20497;-57
2022/05/11 08:58:40;;;;;;;4.28;2.35;;;;;;;21.91;38.93;98687.31;6259054;22;20218;-56
2022/05/11 09:01:11;;;;;;;6.32;2.38;;;;;;;21.92;39.18;98678.41;6267553;22;20156;-57
2022/05/11 09:03:44;;;;;;;5.53;2.53;;;;;;;22.01;39.98;98672.16;6268532;22;20491;-57
2022/05/11 09:06:24;;;;;;;3.63;2.25;;;;;;;22.10;40.10;98672.94;6269580;22;20136;-57
2022/05/11 09:08:50;;;;;;;6.15;2.42;;;;;;;22.16;39.48;98672.25;6269390;22;20136;-57
2022/05/11 09:11:27;;;;;;;6.78;3.13;;;;;;;22.18;39.02;98672.88;6269387;22;20201;-57
2022/05/11 09:13:52;;;;;;;9.57;2.50;;;;;;;22.19;38.70;98669.25;6266287;22;20178;-57
2022/05/11 09:16:25;;;;;;;5.40;3.20;;;;;;;22.27;38.68;98667.41;6254696;22;20475;-57
2022/05/11 09:18:50;;;;;;;7.75;1.92;;;;;;;22.37;38.13;98680.41;6257335;22;20136;-57
2022/05/11 09:21:36;;;;;;;6.60;2.83;;;;;;;22.44;37.38;98670.84;6267674;22;20155;-57
2022/05/11 09:24:12;;;;;;;3.63;2.40;;;;;;;22.52;36.95;98676.06;6269324;22;20132;-57
2022/05/11 09:26:44;;;;;;;2.67;2.35;;;;;;;22.64;36.01;98678.13;6269087;22;20140;-57
2022/05/11 09:29:21;;;;;;;4.20;2.35;;;;;;;22.69;36.16;98678.44;6269240;22;20132;-57
2022/05/11 09:31:50;;;;;;;3.38;2.10;;;;;;;22.82;34.65;98680.50;6269160;22;20213;-57
2022/05/11 09:34:33;;;;;;;3.20;2.25;;;;;;;22.85;33.85;98669.59;6269644;22;20167;-56
2022/05/11 09:37:03;;;;;;;3.28;2.63;;;;;;;22.93;34.83;98674.81;6254415;22;20613;-57
2022/05/11 09:39:31;;;;;;;2.38;2.05;;;;;;;23.06;35.22;98672.38;6257502;22;20584;-57
2022/05/11 09:42:12;;;;;;;3.75;2.17;;;;;;;23.17;33.85;98678.13;6265229;22;20602;-57
2022/05/11 09:44:48;;;;;;;4.78;2.58;;;;;;;23.20;33.91;98682.22;6269144;22;20166;-57
2022/05/11 09:47:28;;;;;;;4.85;2.85;;;;;;;23.20;32.56;98679.59;6269109;22;20142;-56
2022/05/11 09:49:55;;;;;;;4.90;2.75;;;;;;;23.33;31.95;98679.78;6269397;22;20223;-57
2022/05/11 09:52:32;;;;;;;2.45;2.25;;;;;;;23.45;31.98;98679.19;6269366;22;20265;-57
2022/05/11 09:55:00;;;;;;;2.50;2.30;;;;;;;23.53;32.35;98673.03;6267642;22;20252;-57
2022/05/11 09:57:28;;;;;;;2.58;2.20;;;;;;;23.64;30.81;98676.03;6258976;22;20152;-57
2022/05/11 10:00:21;;;;;;;3.53;2.67;;;;;;;23.66;31.10;98673.22;6256271;22;20156;-57
2022/05/11 10:02:53;;;;;;;2.85;2.28;;;;;;;23.79;30.69;98675.03;6266955;22;20178;-57
2022/05/11 10:05:26;;;;;;;3.75;2.35;;;;;;;23.88;31.25;98667.06;6270870;22;20171;-57
2022/05/11 10:08:31;;;;;;;2.47;2.28;;;;;;;24.01;30.54;98669.88;6271052;22;20425;-57
2022/05/11 10:11:21;;;;;;;4.50;2.53;;;;;;;23.89;31.07;98668.72;6270891;22;20154;-57
2022/05/11 10:13:49;;;;;;;4.07;2.78;;;;;;;23.92;31.45;98670.97;6269708;22;20568;-57
2022/05/11 10:22:30;;;;;;;3.47;2.42;;;;;;;24.08;30.52;98663.69;6229010;22;20248;-57
2022/05/11 10:25:28;;;;;;;3.50;2.47;;;;;;;24.31;30.22;98664.41;6268900;22;20238;-57
2022/05/11 10:28:05;;;;;;;3.17;2.88;;;;;;;24.54;30.61;98667.69;6270706;22;20150;-57
2022/05/11 10:30:37;;;;;;;3.55;3.25;;;;;;;24.72;30.10;98662.88;6270654;22;20495;-57
2022/05/11 10:33:14;;;;;;;5.28;2.78;;;;;;;24.78;29.74;98660.25;6270803;22;20140;-57
2022/05/11 10:36:00;;;;;;;5.88;2.72;;;;;;;24.49;30.08;98659.53;6268886;22;20570;-57
2022/05/11 10:38:53;;;;;;;4.75;2.70;;;;;;;24.67;30.33;98654.66;6264823;22;20147;-57
2022/05/11 10:41:33;;;;;;;4.85;3.05;;;;;;;24.93;30.35;98658.41;6255489;22;20183;-57
2022/05/11 10:44:05;;;;;;;3.83;2.75;;;;;;;25.01;30.06;98657.44;6260447;22;20534;-57
2022/05/11 10:46:30;;;;;;;4.88;2.50;;;;;;;24.93;29.73;98650.44;6270440;22;20147;-57
2022/05/11 10:49:16;;;;;;;4.85;2.42;;;;;;;25.23;29.98;98646.63;6270464;22;20197;-57
2022/05/11 10:52:00;;;;;;;4.30;2.67;;;;;;;25.40;30.19;98644.53;6270440;22;20140;-57
2022/05/11 10:54:33;;;;;;;4.07;2.42;;;;;;;25.62;29.64;98641.66;6270270;22;20166;-57
2022/05/11 10:57:38;;;;;;;5.35;2.72;;;;;;;25.73;30.32;98637.66;6270800;22;20136;-57
2022/05/11 11:00:15;;;;;;;12.40;3.60;;;;;;;25.91;30.34;98635.34;6261352;22;20390;-57
2022/05/11 11:02:54;;;;;;;3.55;2.67;;;;;;;25.48;29.81;98629.31;6257810;22;20132;-57
2022/05/11 11:05:28;;;;;;;3.22;2.70;;;;;;;25.52;29.79;98621.81;6262284;22;20570;-57
2022/05/11 11:08:12;;;;;;;3.95;3.13;;;;;;;25.84;29.66;98619.34;6268882;22;20162;-57
2022/05/11 11:11:00;;;;;;;7.03;3.00;;;;;;;26.08;29.87;98621.56;6270384;22;20729;-57
2022/05/11 11:13:54;;;;;;;4.78;2.90;;;;;;;26.14;29.82;98615.47;6269951;22;20592;-57
2022/05/11 11:16:29;;;;;;;4.75;2.63;;;;;;;26.40;29.00;98614.72;6270459;22;20592;-57
2022/05/11 11:18:56;;;;;;;5.43;3.10;;;;;;;26.56;29.34;98614.38;6270064;22;20535;-57
2022/05/11 11:21:23;;;;;;;4.38;3.45;;;;;;;26.35;29.66;98607.34;6259319;22;20154;-57
2022/05/11 11:24:14;;;;;;;11.02;3.78;;;;;;;26.35;29.91;98614.53;6255853;22;20563;-58
2022/05/11 11:27:05;;;;;;;3.38;3.08;;;;;;;26.43;29.19;98604.53;6262915;22;20148;-58
2022/05/11 11:29:31;;;;;;;3.63;3.00;;;;;;;26.56;29.14;98603.78;6270180;22;20159;-58
2022/05/11 11:31:56;;;;;;;3.72;3.38;;;;;;;26.47;28.90;98605.75;6269753;22;20209;-58
2022/05/11 11:34:25;;;;;;;3.30;3.00;;;;;;;26.82;28.72;98614.44;6269892;22;20246;-58
2022/05/11 11:36:52;;;;;;;4.05;2.75;;;;;;;26.93;28.42;98612.00;6269787;22;20758;-57
2022/05/11 11:39:45;;;;;;;5.25;2.80;;;;;;;26.60;28.50;98605.00;6270001;22;20568;-58
2022/05/11 11:42:11;;;;;;;5.28;2.78;;;;;;;26.51;28.76;98601.69;6259985;22;20420;-58
2022/05/11 11:44:46;;;;;;;4.38;2.90;;;;;;;26.57;29.27;98600.09;6256959;22;20144;-58
2022/05/11 11:47:38;;;;;;;3.60;2.90;;;;;;;26.37;29.20;98599.19;6262048;22;20132;-57
2022/05/11 11:50:10;;;;;;;6.43;2.97;;;;;;;26.52;28.15;98608.63;6268447;22;20583;-58
2022/05/11 11:52:44;;;;;;;5.28;2.72;;;;;;;26.69;27.98;98609.94;6268129;22;20276;-58
2022/05/11 11:55:19;;;;;;;5.13;2.88;;;;;;;26.96;27.53;98600.16;6269772;22;20171;-58
2022/05/11 11:57:47;;;;;;;22.60;20.00;;;;;;;27.15;27.94;98594.84;6270182;22;20162;-58
2022/05/11 12:00:31;;;;;;;5.00;3.13;;;;;;;27.38;27.68;98595.25;6269803;22;20147;-58
2022/05/11 12:02:58;;;;;;;5.53;2.78;;;;;;;27.53;27.55;98589.72;6262030;22;20171;-57
2022/05/11 12:05:37;;;;;;;4.00;3.05;;;;;;;27.64;27.19;98595.19;6256643;22;20148;-58
2022/05/11 12:16:53;;;;;;;3.35;2.90;;;;;;;28.25;26.74;98583.16;6269095;22;20613;-56
2022/05/11 12:19:24;;;;;;;2.92;2.60;;;;;;;28.34;26.62;98576.53;6269232;22;20189;-56
2022/05/11 12:21:57;;;;;;;4.00;2.40;;;;;;;28.58;26.92;98567.00;6269738;22;20142;-56
2022/05/11 12:24:38;;;;;;;6.30;2.92;;;;;;;28.80;26.50;98571.75;6259660;22;20226;-56